createdAt,value
2019-03-28T00:01:41.031Z,100582.41
2019-03-28T00:06:50.271Z,100576.54
2019-03-28T00:12:01.608Z,100571.00
2019-03-28T00:17:09.437Z,100562.61
2019-03-28T00:22:28.389Z,100567.56
2019-03-28T00:27:36.869Z,100569.61
2019-03-28T00:32:45.180Z,100571.34
2019-03-28T00:37:53.330Z,100571.59
2019-03-28T00:43:07.892Z,100564.66
2019-03-28T00:48:12.873Z,100565.55
2019-03-28T00:53:20.994Z,100568.65
2019-03-28T00:58:31.605Z,100567.62
2019-03-28T01:03:39.022Z,100578.34
2019-03-28T01:08:46.920Z,100576.52
2019-03-28T01:13:54.971Z,100583.58
2019-03-28T01:19:06.640Z,100577.62
2019-03-28T01:24:15.154Z,100575.83
2019-03-28T01:29:23.998Z,100571.95
2019-03-28T01:34:33.777Z,100569.19
2019-03-28T01:39:41.473Z,100567.95
2019-03-28T01:44:50.056Z,100563.28
2019-03-28T01:50:00.654Z,100561.98
2019-03-28T01:55:09.866Z,100563.13
2019-03-28T02:00:18.668Z,100558.94
2019-03-28T02:05:30.523Z,100565.97
2019-03-28T02:10:39.616Z,100539.95
2019-03-28T02:15:47.711Z,100553.61
2019-03-28T02:20:57.589Z,100551.44
2019-03-28T02:26:07.866Z,100549.58
2019-03-28T02:31:16.702Z,100555.06
2019-03-28T02:36:25.155Z,100553.33
2019-03-28T02:41:42.163Z,100552.08
2019-03-28T02:46:56.239Z,100554.83
2019-03-28T02:52:02.866Z,100531.73
2019-03-28T02:57:10.458Z,100555.34
2019-03-28T03:02:18.508Z,100555.41
2019-03-28T03:07:26.952Z,100553.83
2019-03-28T03:12:34.615Z,100550.13
2019-03-28T03:17:42.845Z,100558.63
2019-03-28T03:22:51.173Z,100562.83
2019-03-28T03:27:59.921Z,100557.86
2019-03-28T03:33:10.993Z,100562.73
2019-03-28T03:38:21.645Z,100556.97
2019-03-28T03:43:29.516Z,100554.60
2019-03-28T03:48:38.785Z,100554.81
2019-03-28T03:53:46.786Z,100554.86
2019-03-28T03:58:54.364Z,100554.21
2019-03-28T04:04:05.379Z,100556.35
2019-03-28T04:09:13.460Z,100558.33
2019-03-28T04:14:21.070Z,100553.27
2019-03-28T04:19:32.054Z,100558.25
2019-03-28T04:24:42.991Z,100565.27
2019-03-28T04:29:52.052Z,100572.17
2019-03-28T04:34:59.933Z,100573.70
2019-03-28T04:40:11.601Z,100571.50
2019-03-28T04:45:19.236Z,100574.26
2019-03-28T04:50:27.215Z,100580.61
2019-03-28T04:55:35.528Z,100582.50
2019-03-28T05:00:43.432Z,100583.05
2019-03-28T05:05:51.487Z,100588.17
2019-03-28T05:11:01.124Z,100576.23
2019-03-28T05:16:10.193Z,100589.70
2019-03-28T05:21:18.278Z,100592.02
2019-03-28T05:26:26.085Z,100596.41
2019-03-28T05:31:34.401Z,100592.00
2019-03-28T05:36:43.047Z,100600.52
2019-03-28T05:41:51.132Z,100602.32
2019-03-28T05:46:58.917Z,100597.50
2019-03-28T05:52:11.749Z,100608.02
2019-03-28T05:57:18.944Z,100594.93
2019-03-28T06:02:26.661Z,100603.05
2019-03-28T06:07:34.630Z,100599.95
2019-03-28T06:12:42.758Z,100604.21
2019-03-28T06:17:50.682Z,100619.22
2019-03-28T06:22:58.881Z,100623.77
2019-03-28T06:28:11.274Z,100621.58
2019-03-28T06:33:20.112Z,100621.73
2019-03-28T06:38:28.487Z,100624.66
2019-03-28T06:43:36.607Z,100630.66
2019-03-28T06:48:44.349Z,100632.85
2019-03-28T06:53:57.063Z,100641.00
2019-03-28T06:59:06.103Z,100640.25
2019-03-28T07:04:18.356Z,100639.73
2019-03-28T07:09:28.558Z,100638.47
2019-03-28T07:14:36.714Z,100642.30
2019-03-28T07:19:44.882Z,100647.61
2019-03-28T07:24:53.241Z,100646.78
2019-03-28T07:30:01.497Z,100648.52
2019-03-28T07:35:13.845Z,100653.60
2019-03-28T07:40:22.835Z,100650.55
2019-03-28T07:45:34.188Z,100648.22
2019-03-28T07:50:42.521Z,100658.08
2019-03-28T07:55:54.884Z,100653.28
2019-03-28T08:01:05.960Z,100659.59
2019-03-28T08:06:20.662Z,100668.01
2019-03-28T08:11:35.567Z,100661.38
2019-03-28T08:16:44.356Z,100669.72
2019-03-28T08:21:54.066Z,100672.78
2019-03-28T08:27:07.007Z,100672.22
2019-03-28T08:32:17.770Z,100674.03
2019-03-28T08:37:28.086Z,100679.33
2019-03-28T08:42:36.159Z,100677.41
2019-03-28T08:47:46.966Z,100686.71
2019-03-28T08:52:55.070Z,100687.46
2019-03-28T08:58:05.038Z,100694.34
2019-03-28T09:03:12.912Z,100692.66
2019-03-28T09:08:24.239Z,100692.30
2019-03-28T09:13:32.370Z,100703.70
2019-03-28T09:18:40.793Z,100709.64
2019-03-28T09:23:48.866Z,100706.34
2019-03-28T09:28:56.842Z,100708.43
2019-03-28T09:34:04.665Z,100699.16
2019-03-28T09:39:13.734Z,100703.83
2019-03-28T09:44:22.225Z,100704.39
2019-03-28T09:49:33.938Z,100705.17
2019-03-28T09:54:49.247Z,100704.31
2019-03-28T10:00:03.484Z,100697.89
2019-03-28T10:05:15.543Z,100690.03
2019-03-28T10:10:31.612Z,100691.84
2019-03-28T10:15:43.889Z,100688.19
2019-03-28T10:20:56.473Z,100693.78
2019-03-28T10:26:09.112Z,100693.47
2019-03-28T10:31:19.592Z,100690.64
2019-03-28T10:36:27.935Z,100697.87
2019-03-28T10:41:39.859Z,100701.83
2019-03-28T10:46:49.174Z,100701.09
2019-03-28T10:52:03.959Z,100701.16
2019-03-28T10:57:15.275Z,100691.63
2019-03-28T11:02:22.036Z,100705.58
2019-03-28T11:07:31.391Z,100707.43
2019-03-28T11:12:39.412Z,100689.34
2019-03-28T11:17:47.808Z,100693.83
2019-03-28T11:22:56.000Z,100701.65
2019-03-28T11:34:03.703Z,100713.75
2019-03-28T11:39:12.252Z,100709.82
2019-03-28T11:44:23.357Z,100721.23
2019-03-28T11:49:32.036Z,100718.44
2019-03-28T12:11:59.226Z,100722.92
2019-03-28T12:17:07.774Z,100714.26
2019-03-28T12:28:50.866Z,100722.16
2019-03-28T12:33:59.612Z,100714.98
2019-03-28T12:39:15.455Z,100712.84
2019-03-28T12:44:24.861Z,100701.45
2019-03-28T12:49:33.186Z,100707.83
2019-03-28T12:54:44.077Z,100707.81
2019-03-28T12:59:53.447Z,100701.91
2019-03-28T13:05:03.132Z,100707.13
2019-03-28T13:10:12.083Z,100712.11
2019-03-28T13:15:20.214Z,100714.75
2019-03-28T13:20:30.745Z,100704.98
2019-03-28T13:31:00.428Z,100717.39
2019-03-28T13:36:09.285Z,100720.86
2019-03-28T13:41:17.536Z,100717.50
2019-03-28T13:46:26.827Z,100717.36
2019-03-28T13:51:34.348Z,100720.78
2019-03-28T13:56:41.837Z,100710.00
2019-03-28T14:01:53.781Z,100715.80
2019-03-28T14:07:03.732Z,100722.12
2019-03-28T14:12:11.755Z,100724.16
2019-03-28T14:17:21.839Z,100723.62
2019-03-28T14:22:29.655Z,100727.40
2019-03-28T14:27:37.780Z,100724.83
2019-03-28T15:07:09.857Z,100734.50
2019-03-28T15:12:17.913Z,100734.66
2019-03-28T15:17:26.069Z,100725.95
2019-03-28T15:22:34.178Z,100732.10
2019-03-28T15:27:42.249Z,100727.66
2019-03-28T15:32:57.332Z,100719.66
2019-03-28T15:38:10.484Z,100715.95
2019-03-28T15:43:24.429Z,100714.81
2019-03-28T15:48:40.921Z,100723.27
2019-03-28T15:53:50.949Z,100726.59
2019-03-28T15:58:58.925Z,100724.79
2019-03-28T16:04:09.577Z,100718.45
2019-03-28T16:09:21.617Z,100723.63
2019-03-28T16:14:32.969Z,100733.34
2019-03-28T16:19:41.200Z,100731.48
2019-03-28T16:24:48.820Z,100740.94
2019-03-28T16:29:57.004Z,100745.16
2019-03-28T16:35:06.983Z,100737.55
2019-03-28T16:40:14.924Z,100748.48
2019-03-28T16:45:24.225Z,100742.77
2019-03-28T16:50:32.453Z,100748.19
2019-03-28T16:55:43.481Z,100753.65
2019-03-28T17:00:59.122Z,100754.59
2019-03-28T17:06:08.438Z,100757.12
2019-03-28T17:11:17.971Z,100753.43
2019-03-28T17:16:26.797Z,100745.83
2019-03-28T17:21:34.929Z,100752.21
2019-03-28T17:26:42.661Z,100751.70
2019-03-28T17:31:54.154Z,100755.80
2019-03-28T17:37:03.865Z,100759.63
2019-03-28T17:42:11.440Z,100750.84
2019-03-28T17:47:19.299Z,100768.47
2019-03-28T17:52:28.688Z,100780.79
2019-03-28T17:57:40.064Z,100778.86
2019-03-28T18:02:49.590Z,100785.95
2019-03-28T18:52:51.639Z,100827.55
2019-03-28T18:58:00.881Z,100835.22
2019-03-28T19:03:12.356Z,100836.78
2019-03-28T19:08:21.688Z,100841.30
2019-03-28T19:13:31.247Z,100840.44
2019-03-28T19:18:40.529Z,100843.37
2019-03-28T19:23:49.105Z,100836.79
2019-03-28T19:29:05.040Z,100842.64
2019-03-28T19:34:15.454Z,100848.20
2019-03-28T19:39:32.232Z,100852.46
2019-03-28T19:44:45.270Z,100853.92
2019-03-28T19:49:55.353Z,100842.38
2019-03-28T19:55:14.346Z,100850.88
2019-03-28T20:00:27.384Z,100848.20
2019-03-28T20:05:47.357Z,100854.48
2019-03-28T20:10:51.179Z,100856.48
2019-03-28T20:15:59.817Z,100871.08
2019-03-28T20:21:14.988Z,100868.75
2019-03-28T20:26:27.911Z,100855.84
2019-03-28T20:31:36.784Z,100855.67
2019-03-28T20:36:48.367Z,100858.78
2019-03-28T20:41:56.862Z,100857.78
2019-03-28T20:47:08.002Z,100859.30
2019-03-28T20:52:15.919Z,100854.94
2019-03-28T20:57:29.391Z,100856.53
2019-03-28T21:02:37.709Z,100855.75
2019-03-28T21:07:45.508Z,100861.27
2019-03-28T21:12:56.785Z,100868.36
2019-03-28T21:18:08.087Z,100860.87
2019-03-28T21:23:18.979Z,100860.05
2019-03-28T21:28:27.037Z,100862.09
2019-03-28T21:33:37.178Z,100861.26
2019-03-28T21:38:44.867Z,100857.27
2019-03-28T21:43:52.839Z,100855.05
2019-03-28T21:49:00.907Z,100861.09
2019-03-28T21:54:08.859Z,100857.96
2019-03-28T21:59:21.040Z,100852.55
2019-03-28T22:04:29.559Z,100856.44
2019-03-28T22:09:39.689Z,100852.41
2019-03-28T22:14:48.306Z,100858.52
2019-03-28T22:19:57.310Z,100857.69
2019-03-28T22:25:06.811Z,100851.12
2019-03-28T22:30:15.678Z,100863.86
2019-03-28T22:35:27.220Z,100855.97
2019-03-28T22:40:35.216Z,100860.13
2019-03-28T22:45:43.898Z,100860.47
2019-03-28T22:50:52.076Z,100859.09
2019-03-28T22:55:59.780Z,100860.78
2019-03-28T23:01:10.257Z,100863.13
2019-03-28T23:06:19.351Z,100863.39
2019-03-28T23:11:29.965Z,100860.61
2019-03-28T23:16:38.256Z,100854.14
2019-03-28T23:21:45.945Z,100858.30
2019-03-28T23:26:53.658Z,100860.09
2019-03-28T23:32:04.155Z,100858.82
2019-03-28T23:37:24.238Z,100860.78
2019-03-28T23:42:22.840Z,100863.95
2019-03-28T23:47:32.692Z,100859.22
2019-03-28T23:52:40.360Z,100864.43
2019-03-28T23:57:48.625Z,100865.25
